createdAt,value
2022-10-02T00:01:25.976Z,13.28
2022-10-02T00:03:55.082Z,13.22
2022-10-02T00:06:25.582Z,13.18
2022-10-02T00:09:04.984Z,13.12
2022-10-02T00:11:43.645Z,13.07
2022-10-02T00:14:15.359Z,13.02
2022-10-02T00:16:46.855Z,13.01
2022-10-02T00:19:17.989Z,12.98
2022-10-02T00:21:55.976Z,12.98
2022-10-02T00:24:28.205Z,12.98
2022-10-02T00:27:01.967Z,12.99
2022-10-02T00:29:39.091Z,13.04
2022-10-02T00:32:18.004Z,13.10
2022-10-02T00:35:02.627Z,13.13
2022-10-02T00:37:39.919Z,13.16
2022-10-02T00:40:36.967Z,13.17
2022-10-02T00:43:16.718Z,13.18
2022-10-02T00:46:22.514Z,13.20
2022-10-02T00:49:06.049Z,13.22
2022-10-02T00:51:49.073Z,13.21
2022-10-02T00:54:29.181Z,13.20
2022-10-02T00:57:09.720Z,13.21
2022-10-02T00:59:58.770Z,13.23
2022-10-02T01:03:04.779Z,13.22
2022-10-02T01:05:34.220Z,13.22
2022-10-02T01:08:02.562Z,13.23
2022-10-02T01:10:31.501Z,13.27
2022-10-02T01:13:00.780Z,13.27
2022-10-02T01:15:31.785Z,13.27
2022-10-02T01:18:02.041Z,13.26
2022-10-02T01:20:36.425Z,13.27
2022-10-02T01:23:15.413Z,13.26
2022-10-02T01:25:45.205Z,13.28
2022-10-02T01:28:15.432Z,13.30
2022-10-02T01:30:48.679Z,13.29
2022-10-02T01:33:17.255Z,13.29
2022-10-02T01:35:45.507Z,13.25
2022-10-02T01:38:18.034Z,13.28
2022-10-02T01:40:47.378Z,13.32
2022-10-02T01:43:18.343Z,13.33
2022-10-02T01:45:53.803Z,13.36
2022-10-02T01:48:35.729Z,13.50
2022-10-02T01:51:20.286Z,13.49
2022-10-02T01:53:55.900Z,13.53
2022-10-02T01:56:34.845Z,13.55
2022-10-02T01:59:12.875Z,13.56
2022-10-02T02:01:48.496Z,13.63
2022-10-02T02:04:24.614Z,13.68
2022-10-02T02:06:58.511Z,13.67
2022-10-02T02:09:35.269Z,13.83
2022-10-02T02:12:11.067Z,13.79
2022-10-02T02:14:47.430Z,13.85
2022-10-02T02:17:21.795Z,13.81
2022-10-02T02:19:57.374Z,13.89
2022-10-02T02:22:29.124Z,13.81
2022-10-02T02:25:01.403Z,14.00
2022-10-02T02:27:34.789Z,13.89
2022-10-02T02:30:06.112Z,13.85
2022-10-02T02:32:40.057Z,13.85
2022-10-02T02:35:12.459Z,13.89
2022-10-02T02:37:41.710Z,13.88
2022-10-02T02:40:14.662Z,13.88
2022-10-02T02:42:50.571Z,13.88
2022-10-02T02:45:22.487Z,14.10
2022-10-02T02:47:55.025Z,14.18
2022-10-02T02:50:25.813Z,14.04
2022-10-02T02:52:59.343Z,14.00
2022-10-02T02:55:33.369Z,14.16
2022-10-02T02:58:08.866Z,14.04
2022-10-02T03:00:37.011Z,14.05
2022-10-02T03:03:05.180Z,14.06
2022-10-02T03:05:33.948Z,13.99
2022-10-02T03:08:05.710Z,14.20
2022-10-02T03:10:46.675Z,14.07
2022-10-02T03:13:32.234Z,14.09
2022-10-02T03:16:14.037Z,14.01
2022-10-02T03:19:03.678Z,14.11
2022-10-02T03:21:39.061Z,14.08
2022-10-02T03:24:12.468Z,14.16
2022-10-02T03:26:44.457Z,14.40
2022-10-02T03:29:20.110Z,14.28
2022-10-02T03:31:49.391Z,14.23
2022-10-02T03:34:18.113Z,14.21
2022-10-02T03:36:47.806Z,14.09
2022-10-02T03:39:25.184Z,14.07
2022-10-02T03:41:54.787Z,14.18
2022-10-02T03:44:24.003Z,14.29
2022-10-02T03:46:52.016Z,14.37
2022-10-02T03:49:19.862Z,14.30
2022-10-02T03:51:47.874Z,14.31
2022-10-02T03:54:19.024Z,14.33
2022-10-02T03:56:54.141Z,14.24
2022-10-02T03:59:32.834Z,14.28
2022-10-02T04:02:03.673Z,14.31
2022-10-02T04:04:41.474Z,14.34
2022-10-02T04:07:15.924Z,14.35
2022-10-02T04:09:47.367Z,14.39
2022-10-02T04:12:20.653Z,14.30
2022-10-02T04:14:54.404Z,14.37
2022-10-02T04:17:25.548Z,14.33
2022-10-02T04:19:58.545Z,14.37
2022-10-02T04:22:34.539Z,14.37
2022-10-02T04:25:08.081Z,14.58
2022-10-02T04:27:39.345Z,14.45
2022-10-02T04:30:12.642Z,14.35
2022-10-02T04:32:40.609Z,14.42
2022-10-02T04:35:14.790Z,14.35
2022-10-02T04:37:57.148Z,14.35
2022-10-02T04:40:37.849Z,14.31
2022-10-02T04:43:23.054Z,14.40
2022-10-02T04:46:16.872Z,14.54
2022-10-02T04:49:18.675Z,14.54
2022-10-02T04:52:02.659Z,14.43
2022-10-02T04:54:50.307Z,14.46
2022-10-02T04:57:29.829Z,14.59
2022-10-02T05:00:08.612Z,14.62
2022-10-02T05:02:50.404Z,14.45
2022-10-02T05:05:26.405Z,14.56
2022-10-02T05:08:14.798Z,14.62
2022-10-02T05:11:05.421Z,14.62
2022-10-02T05:13:48.329Z,14.48
2022-10-02T05:16:28.627Z,14.51
2022-10-02T05:19:33.215Z,14.65
2022-10-02T05:22:19.745Z,14.48
2022-10-02T05:24:58.929Z,14.49
2022-10-02T05:27:49.616Z,14.41
2022-10-02T05:30:18.849Z,14.37
2022-10-02T05:33:06.975Z,14.35
2022-10-02T05:35:51.916Z,14.31
2022-10-02T05:38:29.884Z,14.30
2022-10-02T05:41:03.145Z,14.35
2022-10-02T05:43:40.735Z,14.33
2022-10-02T05:46:15.936Z,14.55
2022-10-02T05:48:47.372Z,14.48
2022-10-02T05:51:22.761Z,14.41
2022-10-02T05:53:58.042Z,14.36
2022-10-02T05:56:34.358Z,14.38
2022-10-02T05:59:09.705Z,14.42
2022-10-02T06:01:42.348Z,14.52
2022-10-02T06:04:18.123Z,14.41
2022-10-02T06:06:51.474Z,14.36
2022-10-02T06:09:23.923Z,14.53
2022-10-02T06:11:56.965Z,14.43
2022-10-02T06:14:31.748Z,14.35
2022-10-02T06:17:05.431Z,14.36
2022-10-02T06:19:38.865Z,14.42
2022-10-02T06:22:13.634Z,14.57
2022-10-02T06:24:48.315Z,14.49
2022-10-02T06:27:26.494Z,14.37
2022-10-02T06:30:00.880Z,14.39
2022-10-02T06:32:34.945Z,14.36
2022-10-02T06:35:09.916Z,14.40
2022-10-02T06:37:51.102Z,14.45
2022-10-02T06:40:44.310Z,14.37
2022-10-02T06:43:22.987Z,14.38
2022-10-02T06:46:00.665Z,14.40
2022-10-02T06:48:40.947Z,14.50
2022-10-02T06:51:22.165Z,14.60
2022-10-02T06:54:08.988Z,14.48
2022-10-02T06:56:46.774Z,14.40
2022-10-02T06:59:31.026Z,14.50
2022-10-02T07:02:05.116Z,14.55
2022-10-02T07:04:52.709Z,14.55
2022-10-02T07:07:42.946Z,14.40
2022-10-02T07:10:29.771Z,14.37
2022-10-02T07:13:14.401Z,14.36
2022-10-02T07:16:07.635Z,14.40
2022-10-02T07:18:50.688Z,14.51
2022-10-02T07:21:32.905Z,14.45
2022-10-02T07:24:11.958Z,14.48
2022-10-02T07:26:50.209Z,14.42
2022-10-02T07:29:33.262Z,14.39
2022-10-02T07:32:21.820Z,14.41
2022-10-02T07:35:00.930Z,14.50
2022-10-02T07:37:41.741Z,14.41
2022-10-02T07:40:29.141Z,14.44
2022-10-02T07:43:21.984Z,14.68
2022-10-02T07:45:55.937Z,14.76
2022-10-02T07:48:37.756Z,14.67
2022-10-02T07:51:32.051Z,14.57
2022-10-02T07:54:15.443Z,14.59
2022-10-02T07:56:46.728Z,14.55
2022-10-02T07:59:18.441Z,14.55
2022-10-02T08:01:50.336Z,14.54
2022-10-02T08:04:25.536Z,14.54
2022-10-02T08:06:58.227Z,14.52
2022-10-02T08:09:33.664Z,14.52
2022-10-02T08:12:09.113Z,14.56
2022-10-02T08:14:41.846Z,14.79
2022-10-02T08:17:23.878Z,14.91
2022-10-02T08:19:53.467Z,15.13
2022-10-02T08:22:25.808Z,15.08
2022-10-02T08:24:57.861Z,14.98
2022-10-02T08:27:30.993Z,14.89
2022-10-02T08:30:06.418Z,14.81
2022-10-02T08:32:37.283Z,14.67
2022-10-02T08:35:12.619Z,14.63
2022-10-02T08:37:54.653Z,14.66
2022-10-02T08:41:05.202Z,14.69
2022-10-02T08:44:15.984Z,14.90
2022-10-02T08:47:10.694Z,14.84
2022-10-02T08:50:32.360Z,14.85
2022-10-02T08:53:36.739Z,14.84
2022-10-02T08:56:25.101Z,14.84
2022-10-02T08:59:29.586Z,14.86
2022-10-02T09:02:27.612Z,14.89
2022-10-02T09:05:29.773Z,14.89
2022-10-02T09:08:20.766Z,14.89
2022-10-02T09:11:10.570Z,14.93
2022-10-02T09:14:09.957Z,15.04
2022-10-02T09:16:44.677Z,15.19
2022-10-02T09:19:40.702Z,15.16
2022-10-02T09:22:24.917Z,15.10
2022-10-02T09:25:25.412Z,15.08
2022-10-02T09:28:31.991Z,15.14
2022-10-02T09:31:27.693Z,15.16
2022-10-02T09:34:28.052Z,15.32
2022-10-02T09:37:28.788Z,15.21
2022-10-02T09:40:19.601Z,15.34
2022-10-02T09:43:33.418Z,15.19
2022-10-02T09:46:30.405Z,15.07
2022-10-02T09:49:40.226Z,15.06
2022-10-02T09:52:47.787Z,15.05
2022-10-02T09:56:00.823Z,15.02
2022-10-02T09:58:48.334Z,15.04
2022-10-02T10:01:35.391Z,15.08
2022-10-02T10:05:05.427Z,15.05
2022-10-02T10:07:59.141Z,15.14
2022-10-02T10:10:42.455Z,15.18
2022-10-02T10:13:49.008Z,15.06
2022-10-02T10:16:47.887Z,15.09
2022-10-02T10:20:11.329Z,15.18
2022-10-02T10:23:14.729Z,15.13
2022-10-02T10:26:07.906Z,15.24
2022-10-02T10:29:01.824Z,15.14
2022-10-02T10:32:17.580Z,15.14
2022-10-02T10:35:23.094Z,15.22
2022-10-02T10:38:14.177Z,15.48
2022-10-02T10:41:05.758Z,15.53
2022-10-02T10:44:05.226Z,15.42
2022-10-02T10:47:00.356Z,15.38
2022-10-02T10:49:47.697Z,15.35
2022-10-02T10:52:25.121Z,15.36
2022-10-02T10:55:08.998Z,15.55
2022-10-02T10:58:00.998Z,15.68
2022-10-02T11:00:34.504Z,15.50
2022-10-02T11:03:49.720Z,15.44
2022-10-02T11:06:51.249Z,15.37
2022-10-02T11:09:52.797Z,15.36
2022-10-02T11:12:45.649Z,15.29
2022-10-02T11:15:39.382Z,15.21
2022-10-02T11:18:36.000Z,15.29
2022-10-02T11:21:35.090Z,15.30
2022-10-02T11:24:27.960Z,15.27
2022-10-02T11:27:13.550Z,15.27
2022-10-02T11:30:10.360Z,15.30
2022-10-02T11:33:12.902Z,15.34
2022-10-02T11:35:56.218Z,15.29
2022-10-02T11:38:38.475Z,15.22
2022-10-02T11:41:16.145Z,15.52
2022-10-02T11:43:59.631Z,15.37
2022-10-02T11:46:40.816Z,15.37
2022-10-02T11:49:46.882Z,15.53
2022-10-02T11:52:44.769Z,15.58
2022-10-02T11:55:32.280Z,15.74
2022-10-02T11:58:15.319Z,15.61
2022-10-02T12:01:05.631Z,15.56
2022-10-02T12:03:46.013Z,15.63
2022-10-02T12:06:30.370Z,15.72
2022-10-02T12:09:09.821Z,15.63
2022-10-02T12:11:44.427Z,15.53
2022-10-02T12:14:28.688Z,15.72
2022-10-02T12:17:09.599Z,15.60
2022-10-02T12:20:15.665Z,15.55
2022-10-02T12:23:11.035Z,15.58
2022-10-02T12:26:01.591Z,15.63
2022-10-02T12:28:37.121Z,15.41
2022-10-02T12:31:12.853Z,15.38
2022-10-02T12:33:54.205Z,15.34
2022-10-02T12:36:37.524Z,15.51
2022-10-02T12:39:26.754Z,15.58
2022-10-02T12:42:06.235Z,15.67
2022-10-02T12:44:58.759Z,15.66
2022-10-02T12:48:01.133Z,15.80
2022-10-02T12:50:47.360Z,15.88
2022-10-02T12:53:53.342Z,15.98
2022-10-02T12:57:34.382Z,16.04
2022-10-02T13:00:15.367Z,16.01
2022-10-02T13:03:08.746Z,16.01
2022-10-02T13:06:06.865Z,15.96
2022-10-02T13:09:13.691Z,15.94
2022-10-02T13:11:56.419Z,15.92
2022-10-02T13:14:49.789Z,15.95
2022-10-02T13:17:31.587Z,16.01
2022-10-02T13:20:11.612Z,15.93
2022-10-02T13:22:46.103Z,15.92
2022-10-02T13:25:27.403Z,15.99
2022-10-02T13:28:04.489Z,16.11
2022-10-02T13:30:39.901Z,16.01
2022-10-02T13:33:23.427Z,16.17
2022-10-02T13:36:05.201Z,16.08
2022-10-02T13:38:52.204Z,16.15
2022-10-02T13:41:31.516Z,16.14
2022-10-02T13:44:20.097Z,16.05
2022-10-02T13:47:07.090Z,16.10
2022-10-02T13:49:52.005Z,16.05
2022-10-02T13:52:32.067Z,16.03
2022-10-02T13:55:23.579Z,15.96
2022-10-02T13:58:24.236Z,15.97
2022-10-02T14:01:04.580Z,15.93
2022-10-02T14:03:44.839Z,15.96
2022-10-02T14:06:21.194Z,16.00
2022-10-02T14:09:16.810Z,15.95
2022-10-02T14:12:12.409Z,15.93
2022-10-02T14:15:04.896Z,15.92
2022-10-02T14:17:43.615Z,15.84
2022-10-02T14:20:23.515Z,15.80
2022-10-02T14:23:21.055Z,15.85
2022-10-02T14:26:02.833Z,15.84
2022-10-02T14:28:55.486Z,15.84
2022-10-02T14:31:42.769Z,15.88
2022-10-02T14:34:26.257Z,15.89
2022-10-02T14:37:17.443Z,15.93
2022-10-02T14:39:46.633Z,16.02
2022-10-02T14:42:30.995Z,15.98
2022-10-02T14:45:36.551Z,15.89
2022-10-02T14:48:17.912Z,15.84
2022-10-02T14:51:05.377Z,15.80
2022-10-02T14:53:50.369Z,15.79
2022-10-02T14:56:35.152Z,15.78
2022-10-02T14:59:23.076Z,15.85
2022-10-02T15:02:01.506Z,15.93
2022-10-02T15:04:47.144Z,15.86
2022-10-02T15:07:19.114Z,15.91
2022-10-02T15:10:01.094Z,15.82
2022-10-02T15:12:49.660Z,15.84
2022-10-02T15:15:27.447Z,15.87
2022-10-02T15:18:17.751Z,15.91
2022-10-02T15:21:00.678Z,15.96
2022-10-02T15:23:44.577Z,15.96
2022-10-02T15:26:31.141Z,15.83
2022-10-02T15:29:14.118Z,15.75
2022-10-02T15:31:47.687Z,15.69
2022-10-02T15:34:26.175Z,15.78
2022-10-02T15:37:19.130Z,15.76
2022-10-02T15:40:00.810Z,15.66
2022-10-02T15:42:49.396Z,15.65
2022-10-02T15:45:27.618Z,15.65
2022-10-02T15:48:14.235Z,15.58
2022-10-02T15:50:53.540Z,15.55
2022-10-02T15:53:36.024Z,15.52
2022-10-02T15:56:23.828Z,15.49
2022-10-02T15:59:05.511Z,15.51
2022-10-02T16:01:47.228Z,15.50
2022-10-02T16:04:26.061Z,15.50
2022-10-02T16:07:25.687Z,15.39
2022-10-02T16:10:08.576Z,15.32
2022-10-02T16:12:54.071Z,15.43
2022-10-02T16:15:26.464Z,15.37
2022-10-02T16:18:14.161Z,15.30
2022-10-02T16:20:57.987Z,15.21
2022-10-02T16:23:37.081Z,15.21
2022-10-02T16:26:20.694Z,15.18
2022-10-02T16:28:57.567Z,15.15
2022-10-02T16:31:44.929Z,15.13
2022-10-02T16:34:25.236Z,15.09
2022-10-02T16:37:02.633Z,15.21
2022-10-02T16:39:55.126Z,15.15
2022-10-02T16:42:35.691Z,15.07
2022-10-02T16:45:34.533Z,15.06
2022-10-02T16:48:08.824Z,15.09
2022-10-02T16:51:04.751Z,15.04
2022-10-02T16:53:43.529Z,15.01
2022-10-02T16:56:21.689Z,14.99
2022-10-02T16:59:01.139Z,14.94
2022-10-02T17:01:35.345Z,14.91
2022-10-02T17:04:18.978Z,14.91
2022-10-02T17:06:53.493Z,14.87
2022-10-02T17:09:27.780Z,14.86
2022-10-02T17:12:03.125Z,14.85
2022-10-02T17:14:42.673Z,14.81
2022-10-02T17:17:20.537Z,14.76
2022-10-02T17:19:54.233Z,14.68
2022-10-02T17:22:33.075Z,14.63
2022-10-02T17:25:16.322Z,14.59
2022-10-02T17:27:53.189Z,14.54
2022-10-02T17:30:25.071Z,14.49
2022-10-02T17:33:07.837Z,14.44
2022-10-02T17:35:46.633Z,14.36
2022-10-02T17:38:36.766Z,14.30
2022-10-02T17:41:26.702Z,14.25
2022-10-02T17:44:08.425Z,14.25
2022-10-02T17:47:07.811Z,14.18
2022-10-02T17:49:45.498Z,14.11
2022-10-02T17:52:43.449Z,14.04
2022-10-02T17:55:48.622Z,13.99
2022-10-02T17:58:28.587Z,13.95
2022-10-02T18:01:08.357Z,13.93
2022-10-02T18:03:49.170Z,13.89
2022-10-02T18:06:29.054Z,13.90
2022-10-02T18:09:27.067Z,13.88
2022-10-02T18:12:25.279Z,13.85
2022-10-02T18:15:07.165Z,13.83
2022-10-02T18:17:45.462Z,13.80
2022-10-02T18:20:23.923Z,13.80
2022-10-02T18:23:17.532Z,13.81
2022-10-02T18:26:18.046Z,13.82
2022-10-02T18:29:05.800Z,13.78
2022-10-02T18:31:56.345Z,13.73
2022-10-02T18:34:44.201Z,13.68
2022-10-02T18:37:28.870Z,13.63
2022-10-02T18:40:12.995Z,13.57
2022-10-02T18:42:54.268Z,13.51
2022-10-02T18:45:40.740Z,13.48
2022-10-02T18:48:25.822Z,13.46
2022-10-02T18:51:16.794Z,13.40
2022-10-02T18:53:58.382Z,13.37
2022-10-02T18:56:44.524Z,13.33
2022-10-02T18:59:21.088Z,13.28
2022-10-02T19:02:06.643Z,13.24
2022-10-02T19:04:55.417Z,13.19
2022-10-02T19:07:29.342Z,13.17
2022-10-02T19:10:27.949Z,13.13
2022-10-02T19:13:00.861Z,13.07
2022-10-02T19:15:31.948Z,13.03
2022-10-02T19:18:05.403Z,13.02
2022-10-02T19:20:41.650Z,12.99
2022-10-02T19:23:17.240Z,12.92
2022-10-02T19:25:48.147Z,12.84
2022-10-02T19:28:19.887Z,12.80
2022-10-02T19:30:51.293Z,12.78
2022-10-02T19:33:32.762Z,12.80
2022-10-02T19:36:05.794Z,12.81
2022-10-02T19:38:37.539Z,12.84
2022-10-02T19:41:10.605Z,12.87
2022-10-02T19:43:54.313Z,12.89
2022-10-02T19:46:31.023Z,12.94
2022-10-02T19:49:02.138Z,12.96
2022-10-02T19:51:30.076Z,12.97
2022-10-02T19:54:03.382Z,13.00
2022-10-02T19:56:40.922Z,13.04
2022-10-02T19:59:16.152Z,13.05
2022-10-02T20:01:49.773Z,13.07
2022-10-02T20:04:21.622Z,13.08
2022-10-02T20:06:53.382Z,13.10
2022-10-02T20:09:29.324Z,13.13
2022-10-02T20:12:01.827Z,13.12
2022-10-02T20:14:35.850Z,13.10
2022-10-02T20:17:12.622Z,13.12
2022-10-02T20:19:51.748Z,13.14
2022-10-02T20:22:31.265Z,13.14
2022-10-02T20:25:04.771Z,13.16
2022-10-02T20:27:42.242Z,13.16
2022-10-02T20:30:15.284Z,13.16
2022-10-02T20:32:50.133Z,13.16
2022-10-02T20:35:29.085Z,13.14
2022-10-02T20:37:59.936Z,13.14
2022-10-02T20:40:32.536Z,13.14
2022-10-02T20:43:05.985Z,13.15
2022-10-02T20:45:40.914Z,13.17
2022-10-02T20:49:03.536Z,13.18
2022-10-02T20:51:52.810Z,13.12
2022-10-02T20:54:43.334Z,13.08
2022-10-02T20:58:00.140Z,13.02
2022-10-02T21:00:34.205Z,12.94
2022-10-02T21:03:23.148Z,12.89
2022-10-02T21:06:04.651Z,12.84
2022-10-02T21:09:26.553Z,12.81
2022-10-02T21:12:25.093Z,12.76
2022-10-02T21:15:09.647Z,12.72
2022-10-02T21:18:06.900Z,12.67
2022-10-02T21:21:06.132Z,12.56
2022-10-02T21:24:02.301Z,12.49
2022-10-02T21:27:03.333Z,12.44
2022-10-02T21:29:54.598Z,12.39
2022-10-02T21:32:38.569Z,12.34
2022-10-02T21:35:16.416Z,12.30
2022-10-02T21:37:58.407Z,12.29
2022-10-02T21:40:48.323Z,12.26
2022-10-02T21:44:03.707Z,12.21
2022-10-02T21:46:51.202Z,12.20
2022-10-02T21:50:09.384Z,12.17
2022-10-02T21:53:20.971Z,12.10
2022-10-02T21:56:22.495Z,12.07
2022-10-02T21:59:11.420Z,12.03
2022-10-02T22:02:08.869Z,11.99
2022-10-02T22:05:06.037Z,11.94
2022-10-02T22:07:44.049Z,11.92
2022-10-02T22:10:20.313Z,11.85
2022-10-02T22:13:09.879Z,11.83
2022-10-02T22:15:44.535Z,11.77
2022-10-02T22:18:24.743Z,11.72
2022-10-02T22:21:08.241Z,11.71
2022-10-02T22:23:49.801Z,11.65
2022-10-02T22:26:34.807Z,11.61
2022-10-02T22:29:14.298Z,11.51
2022-10-02T22:32:48.638Z,11.47
2022-10-02T22:35:28.499Z,11.42
2022-10-02T22:38:15.462Z,11.41
2022-10-02T22:40:53.341Z,11.39
2022-10-02T22:43:29.964Z,11.38
2022-10-02T22:46:03.616Z,11.37
2022-10-02T22:48:38.571Z,11.34
2022-10-02T22:51:17.772Z,11.26
2022-10-02T22:53:50.946Z,11.24
2022-10-02T22:56:29.655Z,11.23
2022-10-02T22:59:07.691Z,11.20
2022-10-02T23:01:45.603Z,11.13
2022-10-02T23:04:22.399Z,11.08
2022-10-02T23:06:57.034Z,11.07
2022-10-02T23:09:30.601Z,11.07
2022-10-02T23:12:10.982Z,11.04
2022-10-02T23:14:47.644Z,10.99
2022-10-02T23:17:23.620Z,10.98
2022-10-02T23:19:57.791Z,10.96
2022-10-02T23:22:29.829Z,10.92
2022-10-02T23:25:05.239Z,10.94
2022-10-02T23:27:47.099Z,10.90
2022-10-02T23:30:20.489Z,10.87
2022-10-02T23:32:59.435Z,10.88
2022-10-02T23:35:34.489Z,10.88
2022-10-02T23:38:13.051Z,10.91
2022-10-02T23:41:18.292Z,10.95
2022-10-02T23:43:55.786Z,10.94
2022-10-02T23:46:29.839Z,10.93
2022-10-02T23:48:57.887Z,10.91
2022-10-02T23:51:39.532Z,10.88
2022-10-02T23:54:23.529Z,10.86
2022-10-02T23:57:08.073Z,10.81
2022-10-02T23:59:55.171Z,10.73
